RUK32T EGNM-EGAA
Flight info
| Callsign | RUK32T |
|---|---|
| Flight time | 0h 36m |
| Altitude | 24000 |
| Route | NELSA4W NELSA DCT CROFT Y70 KOLID L70 GUNTU Z196 DIGMA M146 IPSET P6 BELZU DCT |
| Aircraft | B738/M-SDE2E3FGHIRWXY/LB1 |
Departure
| Time | 2026-04-28 20:25 |
|---|---|
| Airport | Leeds Bradford Airport (EGNM) |
Arrival
| Time | 2026-04-28 21:01 |
|---|---|
| Airport | Belfast International Airport (EGAA) |
| Time | Latitude | Longitude | Altitude | Speed | Heading |
|---|---|---|---|---|---|
| 2026-04-28 19:57 | 53.86875 | -1.65482 | 663 ft | 0 kts | 1° |
| 2026-04-28 20:16 | 53.86858 | -1.65482 | 662 ft | 4 kts | 1° |
| 2026-04-28 20:16 | 53.86835 | -1.65483 | 660 ft | 4 kts | 11° |
| 2026-04-28 20:16 | 53.86816 | -1.65502 | 661 ft | 4 kts | 74° |
| 2026-04-28 20:16 | 53.86813 | -1.65539 | 660 ft | 1 kts | 91° |
| 2026-04-28 20:17 | 53.86814 | -1.65546 | 660 ft | 0 kts | 91° |
| 2026-04-28 20:19 | 53.86813 | -1.65493 | 660 ft | 9 kts | 91° |
| 2026-04-28 20:20 | 53.86765 | -1.65413 | 660 ft | 14 kts | 183° |
| 2026-04-28 20:20 | 53.86659 | -1.65423 | 661 ft | 16 kts | 183° |
| 2026-04-28 20:20 | 53.86550 | -1.65434 | 666 ft | 15 kts | 183° |
| 2026-04-28 20:20 | 53.86445 | -1.65444 | 670 ft | 11 kts | 183° |
| 2026-04-28 20:21 | 53.86425 | -1.65446 | 672 ft | 0 kts | 183° |
| 2026-04-28 20:22 | 53.86416 | -1.65447 | 673 ft | 4 kts | 183° |
| 2026-04-28 20:22 | 53.86362 | -1.65453 | 677 ft | 12 kts | 184° |
| 2026-04-28 20:22 | 53.86258 | -1.65463 | 679 ft | 16 kts | 183° |
| 2026-04-28 20:22 | 53.86161 | -1.65398 | 680 ft | 15 kts | 138° |
| 2026-04-28 20:23 | 53.86075 | -1.65265 | 674 ft | 20 kts | 137° |
| 2026-04-28 20:23 | 53.85955 | -1.65081 | 669 ft | 26 kts | 137° |
| 2026-04-28 20:23 | 53.85864 | -1.64957 | 663 ft | 10 kts | 110° |
| 2026-04-28 20:23 | 53.85903 | -1.64936 | 661 ft | 9 kts | 294° |
| 2026-04-28 20:24 | 53.85929 | -1.65037 | 666 ft | 9 kts | 309° |
| 2026-04-28 20:24 | 53.86003 | -1.65154 | 672 ft | 38 kts | 317° |
| 2026-04-28 20:24 | 53.86438 | -1.65821 | 669 ft | 129 kts | 318° |
| 2026-04-28 20:24 | 53.87252 | -1.67084 | 1051 ft | 170 kts | 320° |
| 2026-04-28 20:25 | 53.88102 | -1.68428 | 2211 ft | 173 kts | 323° |
| 2026-04-28 20:25 | 53.88999 | -1.69908 | 3109 ft | 180 kts | 320° |
| 2026-04-28 20:25 | 53.89820 | -1.71479 | 4023 ft | 184 kts | 313° |
| 2026-04-28 20:25 | 53.90264 | -1.73698 | 4461 ft | 223 kts | 266° |
| 2026-04-28 20:26 | 53.89682 | -1.76229 | 4754 ft | 245 kts | 234° |
| 2026-04-28 20:26 | 53.89007 | -1.78998 | 5157 ft | 264 kts | 264° |
| 2026-04-28 20:26 | 53.88738 | -1.82087 | 5799 ft | 269 kts | 247° |
| 2026-04-28 20:26 | 53.87688 | -1.84664 | 6485 ft | 266 kts | 225° |
| 2026-04-28 20:27 | 53.86441 | -1.86996 | 7152 ft | 269 kts | 225° |
| 2026-04-28 20:27 | 53.85174 | -1.89351 | 7412 ft | 271 kts | 225° |
| 2026-04-28 20:27 | 53.84159 | -1.92103 | 7438 ft | 289 kts | 253° |
| 2026-04-28 20:27 | 53.84135 | -1.95525 | 7490 ft | 299 kts | 289° |
| 2026-04-28 20:28 | 53.85084 | -1.98645 | 8237 ft | 298 kts | 302° |
| 2026-04-28 20:28 | 53.86049 | -2.01646 | 9283 ft | 299 kts | 296° |
| 2026-04-28 20:28 | 53.86443 | -2.05074 | 10218 ft | 305 kts | 271° |
| 2026-04-28 20:28 | 53.86406 | -2.08693 | 11019 ft | 313 kts | 270° |
| 2026-04-28 20:29 | 53.86360 | -2.12518 | 11302 ft | 338 kts | 270° |
| 2026-04-28 20:29 | 53.86257 | -2.16654 | 11493 ft | 365 kts | 262° |
| 2026-04-28 20:29 | 53.85329 | -2.20773 | 11692 ft | 388 kts | 234° |
| 2026-04-28 20:29 | 53.83423 | -2.24058 | 12186 ft | 396 kts | 216° |
| 2026-04-28 20:30 | 53.81223 | -2.26914 | 12887 ft | 402 kts | 215° |
| 2026-04-28 20:30 | 53.79005 | -2.29842 | 13622 ft | 407 kts | 216° |
| 2026-04-28 20:30 | 53.76798 | -2.32909 | 14367 ft | 413 kts | 218° |
| 2026-04-28 20:30 | 53.74599 | -2.36100 | 15041 ft | 419 kts | 219° |
| 2026-04-28 20:31 | 53.72398 | -2.39378 | 15752 ft | 425 kts | 219° |
| 2026-04-28 20:31 | 53.70204 | -2.42676 | 16430 ft | 431 kts | 219° |
| 2026-04-28 20:31 | 53.67947 | -2.46066 | 17090 ft | 437 kts | 218° |
| 2026-04-28 20:31 | 53.65861 | -2.49842 | 17777 ft | 447 kts | 236° |
| 2026-04-28 20:32 | 53.64715 | -2.54666 | 18876 ft | 443 kts | 259° |
| 2026-04-28 20:32 | 53.64534 | -2.59819 | 19653 ft | 442 kts | 276° |
| 2026-04-28 20:32 | 53.65149 | -2.64888 | 20206 ft | 443 kts | 292° |
| 2026-04-28 20:32 | 53.66161 | -2.69820 | 20817 ft | 447 kts | 293° |
| 2026-04-28 20:33 | 53.67213 | -2.74765 | 21449 ft | 451 kts | 294° |
| 2026-04-28 20:33 | 53.68278 | -2.79763 | 22081 ft | 454 kts | 294° |
| 2026-04-28 20:33 | 53.69339 | -2.84802 | 22692 ft | 458 kts | 293° |
| 2026-04-28 20:33 | 53.70396 | -2.89903 | 23268 ft | 462 kts | 293° |
| 2026-04-28 20:34 | 53.71446 | -2.95043 | 23921 ft | 464 kts | 292° |
| 2026-04-28 20:34 | 53.72469 | -3.00102 | 24374 ft | 466 kts | 292° |
| 2026-04-28 20:34 | 53.73497 | -3.05216 | 24421 ft | 473 kts | 292° |
| 2026-04-28 20:34 | 53.74558 | -3.10513 | 24435 ft | 479 kts | 292° |
| 2026-04-28 20:35 | 53.75622 | -3.15845 | 24422 ft | 478 kts | 292° |
| 2026-04-28 20:35 | 53.76678 | -3.21163 | 24422 ft | 476 kts | 292° |
| 2026-04-28 20:35 | 53.77730 | -3.26473 | 24429 ft | 476 kts | 292° |
| 2026-04-28 20:35 | 53.78779 | -3.31774 | 24433 ft | 476 kts | 292° |
| 2026-04-28 20:36 | 53.79827 | -3.37080 | 24432 ft | 476 kts | 292° |
| 2026-04-28 20:36 | 53.80906 | -3.42360 | 24436 ft | 474 kts | 296° |
| 2026-04-28 20:36 | 53.82360 | -3.47326 | 24442 ft | 469 kts | 305° |
| 2026-04-28 20:36 | 53.84024 | -3.52062 | 24442 ft | 468 kts | 306° |
| 2026-04-28 20:37 | 53.85724 | -3.56771 | 24437 ft | 469 kts | 306° |
| 2026-04-28 20:37 | 53.87425 | -3.61484 | 24440 ft | 469 kts | 306° |
| 2026-04-28 20:37 | 53.89118 | -3.66226 | 24449 ft | 470 kts | 306° |
| 2026-04-28 20:37 | 53.90795 | -3.70987 | 24443 ft | 470 kts | 305° |
| 2026-04-28 20:38 | 53.92458 | -3.75759 | 24446 ft | 470 kts | 305° |
| 2026-04-28 20:38 | 53.94113 | -3.80546 | 24427 ft | 470 kts | 305° |
| 2026-04-28 20:38 | 53.95765 | -3.85344 | 24438 ft | 470 kts | 305° |
| 2026-04-28 20:38 | 53.97386 | -3.90071 | 24443 ft | 470 kts | 305° |
| 2026-04-28 20:39 | 53.99029 | -3.94867 | 24455 ft | 470 kts | 305° |
| 2026-04-28 20:39 | 54.00666 | -3.99656 | 24449 ft | 469 kts | 305° |
| 2026-04-28 20:39 | 54.02272 | -4.04358 | 24441 ft | 469 kts | 304° |
| 2026-04-28 20:39 | 54.03907 | -4.09157 | 24439 ft | 469 kts | 304° |
| 2026-04-28 20:40 | 54.05542 | -4.13962 | 24436 ft | 469 kts | 304° |
| 2026-04-28 20:40 | 54.07173 | -4.18764 | 24438 ft | 469 kts | 304° |
| 2026-04-28 20:40 | 54.08803 | -4.23573 | 24418 ft | 469 kts | 304° |
| 2026-04-28 20:40 | 54.10432 | -4.28385 | 24426 ft | 467 kts | 304° |
| 2026-04-28 20:41 | 54.12013 | -4.33086 | 24409 ft | 447 kts | 304° |
| 2026-04-28 20:41 | 54.13495 | -4.37618 | 24415 ft | 430 kts | 301° |
| 2026-04-28 20:41 | 54.14556 | -4.42309 | 24435 ft | 417 kts | 292° |
| 2026-04-28 20:41 | 54.15402 | -4.46935 | 24390 ft | 402 kts | 291° |
| 2026-04-28 20:42 | 54.16222 | -4.51452 | 23562 ft | 409 kts | 291° |
| 2026-04-28 20:42 | 54.17089 | -4.56174 | 22327 ft | 425 kts | 291° |
| 2026-04-28 20:42 | 54.17994 | -4.61062 | 21254 ft | 436 kts | 291° |
| 2026-04-28 20:42 | 54.18909 | -4.65999 | 20524 ft | 436 kts | 291° |
| 2026-04-28 20:43 | 54.19821 | -4.70914 | 19982 ft | 431 kts | 291° |
| 2026-04-28 20:43 | 54.20720 | -4.75760 | 19462 ft | 425 kts | 291° |
| 2026-04-28 20:43 | 54.21610 | -4.80555 | 18893 ft | 422 kts | 291° |
| 2026-04-28 20:43 | 54.22495 | -4.85324 | 18538 ft | 422 kts | 291° |
| 2026-04-28 20:44 | 54.23372 | -4.90059 | 18176 ft | 415 kts | 291° |
| 2026-04-28 20:44 | 54.24237 | -4.94739 | 17652 ft | 411 kts | 291° |
| 2026-04-28 20:44 | 54.25093 | -4.99385 | 17009 ft | 409 kts | 291° |
| 2026-04-28 20:44 | 54.25922 | -5.03884 | 16389 ft | 407 kts | 291° |
| 2026-04-28 20:45 | 54.26766 | -5.08483 | 15835 ft | 404 kts | 290° |
| 2026-04-28 20:45 | 54.27601 | -5.13046 | 15297 ft | 400 kts | 290° |
| 2026-04-28 20:45 | 54.28427 | -5.17572 | 14766 ft | 397 kts | 290° |
| 2026-04-28 20:45 | 54.29245 | -5.22065 | 14234 ft | 393 kts | 290° |
| 2026-04-28 20:46 | 54.30042 | -5.26451 | 13669 ft | 390 kts | 290° |
| 2026-04-28 20:46 | 54.30842 | -5.30869 | 13124 ft | 386 kts | 290° |
| 2026-04-28 20:46 | 54.31632 | -5.35240 | 12582 ft | 382 kts | 290° |
| 2026-04-28 20:46 | 54.32411 | -5.39559 | 12079 ft | 378 kts | 289° |
| 2026-04-28 20:47 | 54.33178 | -5.43824 | 11701 ft | 368 kts | 289° |
| 2026-04-28 20:47 | 54.33922 | -5.47970 | 11336 ft | 361 kts | 289° |
| 2026-04-28 20:47 | 54.34653 | -5.52053 | 10901 ft | 357 kts | 289° |
| 2026-04-28 20:47 | 54.35377 | -5.56101 | 10564 ft | 351 kts | 289° |
| 2026-04-28 20:48 | 54.36070 | -5.59995 | 10458 ft | 332 kts | 289° |
| 2026-04-28 20:48 | 54.36723 | -5.63677 | 10333 ft | 314 kts | 289° |
| 2026-04-28 20:48 | 54.37349 | -5.67205 | 10145 ft | 306 kts | 289° |
| 2026-04-28 20:48 | 54.37967 | -5.70686 | 9834 ft | 304 kts | 289° |
| 2026-04-28 20:49 | 54.38573 | -5.74102 | 9505 ft | 303 kts | 289° |
| 2026-04-28 20:49 | 54.39184 | -5.77552 | 9172 ft | 301 kts | 289° |
| 2026-04-28 20:49 | 54.39789 | -5.80982 | 8860 ft | 300 kts | 289° |
| 2026-04-28 20:49 | 54.40390 | -5.84392 | 8552 ft | 298 kts | 288° |
| 2026-04-28 20:50 | 54.40986 | -5.87786 | 8277 ft | 295 kts | 288° |
| 2026-04-28 20:50 | 54.41561 | -5.91075 | 8188 ft | 280 kts | 288° |
| 2026-04-28 20:50 | 54.42105 | -5.94190 | 8104 ft | 264 kts | 288° |
| 2026-04-28 20:50 | 54.42621 | -5.97149 | 7731 ft | 256 kts | 288° |
| 2026-04-28 20:51 | 54.43128 | -6.00050 | 7324 ft | 250 kts | 288° |
| 2026-04-28 20:51 | 54.43608 | -6.02808 | 7037 ft | 241 kts | 288° |
| 2026-04-28 20:51 | 54.44089 | -6.05572 | 6508 ft | 242 kts | 288° |
| 2026-04-28 20:51 | 54.44409 | -6.07411 | 6166 ft | 243 kts | 288° |
| 2026-04-28 20:52 | 54.45053 | -6.11123 | 5634 ft | 241 kts | 288° |
| 2026-04-28 20:52 | 54.45527 | -6.13862 | 5244 ft | 239 kts | 288° |
| 2026-04-28 20:52 | 54.45998 | -6.16592 | 4813 ft | 237 kts | 288° |
| 2026-04-28 20:52 | 54.46463 | -6.19289 | 4556 ft | 230 kts | 288° |
| 2026-04-28 20:53 | 54.47307 | -6.24199 | 4280 ft | 206 kts | 288° |
| 2026-04-28 20:53 | 54.47711 | -6.26550 | 4057 ft | 206 kts | 288° |
| 2026-04-28 20:53 | 54.48122 | -6.28938 | 4030 ft | 209 kts | 288° |
| 2026-04-28 20:54 | 54.48534 | -6.31335 | 4004 ft | 208 kts | 288° |
| 2026-04-28 20:54 | 54.48938 | -6.33696 | 3993 ft | 204 kts | 288° |
| 2026-04-28 20:54 | 54.49336 | -6.36028 | 3993 ft | 201 kts | 288° |
| 2026-04-28 20:54 | 54.49726 | -6.38317 | 3999 ft | 198 kts | 288° |
| 2026-04-28 20:55 | 54.50114 | -6.40594 | 4011 ft | 200 kts | 288° |
| 2026-04-28 20:55 | 54.50554 | -6.42860 | 3998 ft | 200 kts | 301° |
| 2026-04-28 20:55 | 54.51547 | -6.44342 | 4022 ft | 187 kts | 341° |
| 2026-04-28 20:55 | 54.52741 | -6.45260 | 3997 ft | 190 kts | 340° |
| 2026-04-28 20:56 | 54.53986 | -6.46259 | 3619 ft | 198 kts | 340° |
| 2026-04-28 20:56 | 54.55193 | -6.47236 | 3388 ft | 190 kts | 340° |
| 2026-04-28 20:56 | 54.56364 | -6.48185 | 3215 ft | 183 kts | 340° |
| 2026-04-28 20:56 | 54.57567 | -6.48680 | 3041 ft | 175 kts | 15° |
| 2026-04-28 20:57 | 54.58564 | -6.47678 | 2933 ft | 167 kts | 52° |
| 2026-04-28 20:57 | 54.59143 | -6.45942 | 2817 ft | 169 kts | 66° |
| 2026-04-28 20:57 | 54.59642 | -6.44117 | 2657 ft | 167 kts | 66° |
| 2026-04-28 20:57 | 54.60131 | -6.42327 | 2499 ft | 164 kts | 66° |
| 2026-04-28 20:58 | 54.60619 | -6.40542 | 2288 ft | 165 kts | 66° |
| 2026-04-28 20:58 | 54.61104 | -6.38760 | 2076 ft | 163 kts | 66° |
| 2026-04-28 20:58 | 54.61585 | -6.36991 | 1896 ft | 161 kts | 66° |
| 2026-04-28 20:58 | 54.62037 | -6.35330 | 1776 ft | 144 kts | 66° |
| 2026-04-28 20:59 | 54.62433 | -6.33847 | 1588 ft | 131 kts | 66° |
| 2026-04-28 20:59 | 54.62815 | -6.32445 | 1315 ft | 127 kts | 64° |
| 2026-04-28 20:59 | 54.63240 | -6.30948 | 1232 ft | 142 kts | 66° |
| 2026-04-28 20:59 | 54.63663 | -6.29345 | 1026 ft | 148 kts | 65° |
| 2026-04-28 21:00 | 54.64095 | -6.27738 | 854 ft | 147 kts | 65° |
| 2026-04-28 21:00 | 54.64513 | -6.26177 | 684 ft | 144 kts | 66° |
| 2026-04-28 21:00 | 54.64932 | -6.24620 | 467 ft | 143 kts | 65° |
| 2026-04-28 21:00 | 54.65344 | -6.23086 | 277 ft | 136 kts | 65° |
| 2026-04-28 21:01 | 54.65706 | -6.21742 | 271 ft | 107 kts | 65° |
| 2026-04-28 21:01 | 54.65969 | -6.20769 | 275 ft | 72 kts | 65° |
| 2026-04-28 21:01 | 54.66137 | -6.20146 | 271 ft | 44 kts | 65° |
| 2026-04-28 21:01 | 54.66239 | -6.19765 | 271 ft | 17 kts | 65° |
| 2026-04-28 21:02 | 54.66288 | -6.19658 | 271 ft | 6 kts | 16° |
| 2026-04-28 21:02 | 54.66329 | -6.19682 | 271 ft | 8 kts | 334° |
| 2026-04-28 21:02 | 54.66384 | -6.19757 | 271 ft | 13 kts | 303° |
| 2026-04-28 21:02 | 54.66381 | -6.19916 | 272 ft | 14 kts | 245° |
| 2026-04-28 21:03 | 54.66340 | -6.20069 | 271 ft | 14 kts | 244° |
| 2026-04-28 21:03 | 54.66295 | -6.20233 | 271 ft | 17 kts | 245° |
| 2026-04-28 21:03 | 54.66237 | -6.20450 | 274 ft | 23 kts | 245° |
| 2026-04-28 21:03 | 54.66165 | -6.20719 | 271 ft | 26 kts | 245° |
| 2026-04-28 21:04 | 54.66096 | -6.20976 | 274 ft | 22 kts | 245° |
| 2026-04-28 21:04 | 54.66031 | -6.21214 | 273 ft | 22 kts | 245° |
| 2026-04-28 21:04 | 54.65983 | -6.21394 | 271 ft | 14 kts | 245° |
| 2026-04-28 21:04 | 54.65948 | -6.21543 | 271 ft | 11 kts | 268° |
| 2026-04-28 21:05 | 54.65999 | -6.21626 | 275 ft | 11 kts | 338° |
| 2026-04-28 21:05 | 54.66042 | -6.21688 | 271 ft | 8 kts | 291° |
| 2026-04-28 21:05 | 54.66055 | -6.21764 | 275 ft | 4 kts | 285° |
| 2026-04-28 21:05 | 54.66057 | -6.21782 | 275 ft | 1 kts | 285° |
| 2026-04-28 21:06 | 54.66058 | -6.21785 | 274 ft | 0 kts | 285° |